Time;durP1;ratioP1;P1;durP2;ratioP2;P2;SDS_P1;SDS_P2;PMS_P1;PMS_P2;Temp;Humidity;BMP_temperature;BMP_pressure;BME280_temperature;BME280_humidity;BME280_pressure;Samples;Min_cycle;Max_cycle;Signal;HPM_P1;HPM_P2
2024/03/10 00:00:20;;;;;;;5.47;3.90;;;10.60;99.90;;;;;;4969826;28;20528;-46
2024/03/10 00:02:50;;;;;;;5.43;4.10;;;10.60;99.90;;;;;;4971818;28;20493;-47
2024/03/10 00:05:19;;;;;;;6.13;4.87;;;10.60;99.90;;;;;;4937582;28;20491;-47
2024/03/10 00:07:47;;;;;;;5.37;3.80;;;10.60;99.90;;;;;;4963979;28;20476;-49
2024/03/10 00:10:15;;;;;;;5.00;4.50;;;10.60;99.90;;;;;;4950384;28;20487;-49
2024/03/10 00:12:48;;;;;;;5.37;4.63;;;10.60;99.90;;;;;;4959039;28;20448;-50
2024/03/10 00:15:19;;;;;;;5.33;4.07;;;10.60;99.90;;;;;;4944120;28;20481;-47
2024/03/10 00:17:48;;;;;;;5.73;5.23;;;10.60;99.90;;;;;;4965064;28;20822;-47
2024/03/10 00:20:19;;;;;;;6.33;4.30;;;10.60;99.90;;;;;;4956095;28;21446;-48
2024/03/10 00:22:47;;;;;;;5.60;4.23;;;10.60;99.90;;;;;;4961885;28;20432;-45
2024/03/10 00:25:20;;;;;;;5.60;4.20;;;10.60;99.90;;;;;;4938203;28;20489;-48
2024/03/10 00:27:50;;;;;;;7.73;4.60;;;10.60;99.90;;;;;;4972357;28;20470;-46
2024/03/10 00:30:19;;;;;;;5.03;4.40;;;10.60;99.90;;;;;;4945744;28;20541;-47
2024/03/10 00:32:47;;;;;;;4.90;4.13;;;10.60;99.90;;;;;;4936837;28;20460;-46
2024/03/10 00:35:15;;;;;;;6.50;5.30;;;10.60;99.90;;;;;;4941648;28;20495;-46
2024/03/10 00:37:43;;;;;;;5.33;4.10;;;10.60;99.90;;;;;;4966556;28;20433;-46
2024/03/10 00:40:14;;;;;;;4.83;3.87;;;10.60;99.90;;;;;;4963847;28;20426;-46
2024/03/10 00:42:43;;;;;;;5.30;4.03;;;10.60;99.90;;;;;;4967505;28;20532;-47
2024/03/10 00:45:12;;;;;;;5.00;4.13;;;10.60;99.90;;;;;;4966816;28;20451;-46
2024/03/10 00:47:40;;;;;;;5.87;4.90;;;10.60;99.90;;;;;;4967933;28;20533;-46
2024/03/10 00:50:09;;;;;;;5.37;4.53;;;10.60;99.90;;;;;;4956292;28;20493;-46
2024/03/10 00:52:40;;;;;;;4.47;4.07;;;10.60;99.90;;;;;;4965831;28;20494;-47
2024/03/10 00:55:11;;;;;;;5.03;4.53;;;10.60;99.90;;;;;;4954756;28;20954;-46
2024/03/10 00:57:40;;;;;;;5.80;5.10;;;10.60;99.90;;;;;;4970193;28;20450;-46
2024/03/10 01:00:10;;;;;;;6.10;4.87;;;10.60;99.90;;;;;;4939199;28;20946;-46
2024/03/10 01:02:39;;;;;;;6.80;4.50;;;10.60;99.90;;;;;;4968177;28;20456;-46
2024/03/10 01:05:09;;;;;;;4.83;4.17;;;10.60;99.90;;;;;;4946130;28;21005;-46
2024/03/10 01:07:37;;;;;;;6.27;5.03;;;10.60;99.90;;;;;;4962282;28;21005;-46
2024/03/10 01:10:07;;;;;;;6.27;5.67;;;10.60;99.90;;;;;;4971608;28;20998;-46
2024/03/10 01:12:36;;;;;;;4.37;3.97;;;10.60;99.90;;;;;;4940119;28;20447;-46
2024/03/10 01:15:05;;;;;;;6.20;5.30;;;10.60;99.90;;;;;;4969382;28;20902;-46
2024/03/10 01:17:34;;;;;;;8.30;5.50;;;10.60;99.90;;;;;;4945217;28;20966;-46
2024/03/10 01:20:06;;;;;;;6.93;6.03;;;10.60;99.90;;;;;;4964655;28;20452;-46
2024/03/10 01:22:34;;;;;;;7.50;5.47;;;10.60;99.90;;;;;;4942608;28;20451;-46
2024/03/10 01:25:04;;;;;;;7.20;5.30;;;10.60;99.90;;;;;;4966560;28;20476;-46
2024/03/10 01:27:32;;;;;;;6.83;5.23;;;10.60;99.90;;;;;;4935642;28;20476;-46
2024/03/10 01:30:00;;;;;;;5.27;4.50;;;10.60;99.90;;;;;;4951857;28;20993;-46
2024/03/10 01:32:29;;;;;;;6.63;5.23;;;10.60;99.90;;;;;;4925951;28;20532;-46
2024/03/10 01:34:57;;;;;;;5.70;5.10;;;10.60;99.90;;;;;;4964786;28;20467;-46
2024/03/10 01:37:27;;;;;;;6.43;5.27;;;10.60;99.90;;;;;;4941392;28;20457;-46
2024/03/10 01:39:55;;;;;;;5.43;4.90;;;10.60;99.90;;;;;;4972969;28;20429;-46
2024/03/10 01:42:24;;;;;;;7.67;5.00;;;10.60;99.90;;;;;;4941361;28;20554;-46
2024/03/10 01:44:53;;;;;;;6.77;5.50;;;10.60;99.90;;;;;;4960259;28;20470;-46
2024/03/10 01:47:22;;;;;;;6.40;4.43;;;10.60;99.90;;;;;;4956616;28;20498;-46
2024/03/10 01:49:50;;;;;;;5.77;4.20;;;10.60;99.90;;;;;;4970948;28;20495;-46
2024/03/10 01:52:18;;;;;;;7.37;5.30;;;10.60;99.90;;;;;;4957716;28;20482;-46
2024/03/10 01:54:48;;;;;;;5.27;4.60;;;10.60;99.90;;;;;;4969561;28;20445;-46
2024/03/10 01:57:17;;;;;;;5.00;4.10;;;10.60;99.90;;;;;;4942338;28;20488;-46
2024/03/10 01:59:45;;;;;;;5.60;4.37;;;10.60;99.90;;;;;;4966822;28;20799;-46
2024/03/10 02:02:13;;;;;;;4.50;4.03;;;10.60;99.90;;;;;;4926455;28;20457;-46
2024/03/10 02:04:42;;;;;;;6.80;5.10;;;10.60;99.90;;;;;;4967177;28;20992;-46
2024/03/10 02:07:10;;;;;;;4.30;3.73;;;10.60;99.90;;;;;;4943863;28;20824;-46
2024/03/10 02:09:39;;;;;;;5.20;3.67;;;10.60;99.90;;;;;;4966372;28;20471;-46
2024/03/10 02:12:09;;;;;;;4.90;4.00;;;10.60;99.90;;;;;;4945237;28;20483;-46
2024/03/10 02:14:38;;;;;;;4.83;4.10;;;10.60;99.90;;;;;;4965595;28;20436;-47
2024/03/10 02:17:10;;;;;;;6.03;5.07;;;10.60;99.90;;;;;;4966902;28;20429;-46
2024/03/10 02:19:39;;;;;;;5.47;4.10;;;10.60;99.90;;;;;;4968906;28;20521;-46
2024/03/10 02:22:08;;;;;;;6.33;4.10;;;10.60;99.90;;;;;;4940341;28;20430;-46
2024/03/10 02:24:43;;;;;;;6.10;4.30;;;10.60;99.90;;;;;;4972950;28;21584;-46
2024/03/10 02:27:16;;;;;;;5.67;3.77;;;10.60;99.90;;;;;;4939936;28;20506;-46
2024/03/10 02:30:00;;;;;;;4.53;3.97;;;10.60;99.90;;;;;;4971398;28;20428;-46
2024/03/10 02:49:01;;;;;;;4.40;4.00;;;10.50;99.90;;;;;;4941530;28;20492;-46
2024/03/10 02:51:29;;;;;;;5.63;4.73;;;10.50;99.90;;;;;;4969110;28;20503;-46
2024/03/10 02:53:57;;;;;;;5.90;5.30;;;10.60;99.90;;;;;;4944862;28;20994;-46
2024/03/10 02:56:25;;;;;;;6.10;4.43;;;10.50;99.90;;;;;;4938570;28;20472;-47
2024/03/10 02:58:55;;;;;;;5.87;4.70;;;10.50;99.90;;;;;;4967376;28;20429;-46
2024/03/10 03:01:23;;;;;;;4.70;3.77;;;10.60;99.90;;;;;;4969876;28;20958;-46
2024/03/10 03:03:51;;;;;;;5.27;3.90;;;10.50;99.90;;;;;;4942170;28;20472;-46
2024/03/10 03:06:19;;;;;;;4.07;3.67;;;10.60;99.90;;;;;;4962743;28;20528;-46
2024/03/10 03:08:48;;;;;;;5.77;4.50;;;10.60;99.90;;;;;;4939399;28;20508;-46
2024/03/10 03:11:19;;;;;;;6.60;5.03;;;10.60;99.90;;;;;;4966069;28;20459;-46
2024/03/10 03:13:48;;;;;;;6.37;4.70;;;10.50;99.90;;;;;;4922350;28;20467;-46
2024/03/10 03:16:18;;;;;;;6.03;4.47;;;10.50;99.90;;;;;;4948515;28;21000;-46
2024/03/10 03:18:47;;;;;;;5.50;3.87;;;10.50;99.90;;;;;;4963266;28;20440;-46
2024/03/10 03:21:15;;;;;;;4.77;3.53;;;10.50;99.90;;;;;;4965953;28;20440;-46
2024/03/10 03:23:43;;;;;;;5.80;3.97;;;10.50;99.90;;;;;;4962004;28;20946;-46
2024/03/10 03:26:11;;;;;;;6.10;4.60;;;10.50;99.90;;;;;;4937812;28;20482;-46
2024/03/10 03:28:39;;;;;;;5.43;4.10;;;10.50;99.90;;;;;;4969347;28;21006;-46
2024/03/10 03:31:08;;;;;;;6.00;4.73;;;10.50;99.90;;;;;;4939294;28;20823;-46
2024/03/10 03:33:39;;;;;;;6.07;4.90;;;10.50;99.90;;;;;;4963923;28;20528;-46
2024/03/10 03:36:08;;;;;;;5.83;3.93;;;10.50;99.90;;;;;;4936960;28;20488;-46
2024/03/10 03:38:37;;;;;;;4.97;4.47;;;10.50;99.90;;;;;;4959652;28;20449;-46
2024/03/10 03:41:06;;;;;;;5.07;4.03;;;10.50;99.90;;;;;;4939019;28;20512;-46
2024/03/10 03:43:34;;;;;;;5.20;4.57;;;10.50;99.90;;;;;;4946362;28;20461;-46
2024/03/10 03:46:04;;;;;;;5.30;4.30;;;10.50;99.90;;;;;;4943676;28;20490;-46
2024/03/10 03:48:33;;;;;;;4.73;3.80;;;10.50;99.90;;;;;;4974318;28;20465;-46
2024/03/10 03:51:02;;;;;;;3.20;2.63;;;10.50;99.90;;;;;;4940801;28;20499;-47
2024/03/10 03:53:30;;;;;;;5.87;4.83;;;10.50;99.90;;;;;;4964308;28;20457;-46
2024/03/10 03:55:58;;;;;;;3.90;3.50;;;10.50;99.90;;;;;;4948550;28;20486;-46
2024/03/10 03:58:26;;;;;;;5.90;4.60;;;10.50;99.90;;;;;;4970775;28;20448;-46
2024/03/10 04:00:54;;;;;;;4.40;3.77;;;10.50;99.90;;;;;;4941216;28;20438;-47
2024/03/10 04:03:22;;;;;;;4.37;3.83;;;10.50;99.90;;;;;;4970227;28;20526;-47
2024/03/10 04:05:52;;;;;;;5.23;4.40;;;10.50;99.90;;;;;;4933600;28;20522;-46
2024/03/10 04:08:21;;;;;;;5.00;3.70;;;10.50;99.90;;;;;;4962425;28;20462;-46
2024/03/10 04:10:50;;;;;;;3.83;3.03;;;10.50;99.90;;;;;;4959374;28;20457;-46
2024/03/10 04:13:19;;;;;;;4.93;4.33;;;10.50;99.90;;;;;;4966448;28;20477;-46
2024/03/10 04:15:47;;;;;;;4.30;3.80;;;10.50;99.90;;;;;;4962089;28;20985;-46
2024/03/10 04:18:15;;;;;;;4.97;3.93;;;10.50;99.90;;;;;;4965391;28;20460;-46
2024/03/10 04:20:46;;;;;;;5.40;4.10;;;10.50;99.90;;;;;;4969361;28;20440;-46
2024/03/10 04:23:15;;;;;;;4.77;3.77;;;10.50;99.90;;;;;;4967001;28;20902;-46
2024/03/10 04:25:44;;;;;;;4.00;3.20;;;10.50;99.90;;;;;;4945430;28;20484;-46
2024/03/10 04:28:13;;;;;;;5.17;4.17;;;10.50;99.90;;;;;;4960267;28;20999;-46
2024/03/10 04:30:41;;;;;;;5.30;3.97;;;10.50;99.90;;;;;;4940904;28;20957;-46
2024/03/10 04:33:09;;;;;;;4.50;3.87;;;10.50;99.90;;;;;;4967184;28;20447;-46
2024/03/10 04:35:38;;;;;;;4.20;3.47;;;10.50;99.90;;;;;;4938568;28;20834;-47
2024/03/10 04:38:07;;;;;;;4.37;3.97;;;10.50;99.90;;;;;;4959083;28;20550;-46
2024/03/10 04:40:35;;;;;;;4.93;3.70;;;10.50;99.90;;;;;;4938862;28;20556;-47
2024/03/10 04:43:04;;;;;;;3.93;3.10;;;10.50;99.90;;;;;;4966197;28;20444;-46
2024/03/10 04:45:32;;;;;;;5.37;3.80;;;10.50;99.90;;;;;;4927647;28;20488;-46
2024/03/10 04:48:00;;;;;;;3.73;3.30;;;10.50;99.90;;;;;;4968795;28;20453;-46
2024/03/10 04:50:29;;;;;;;5.13;3.60;;;10.50;99.90;;;;;;4945570;28;20462;-46
2024/03/10 04:52:57;;;;;;;3.73;3.33;;;10.50;99.90;;;;;;4967462;28;20460;-46
2024/03/10 04:55:26;;;;;;;3.43;3.13;;;10.50;99.90;;;;;;4945441;28;20924;-47
2024/03/10 04:57:56;;;;;;;5.10;3.90;;;10.50;99.90;;;;;;4963260;28;20459;-46
2024/03/10 05:00:26;;;;;;;4.27;3.50;;;10.50;99.90;;;;;;4947600;28;20466;-46
2024/03/10 05:02:54;;;;;;;4.30;3.00;;;10.50;99.90;;;;;;4971000;28;20526;-46
2024/03/10 05:05:22;;;;;;;3.93;2.87;;;10.50;99.90;;;;;;4935034;28;20537;-46
2024/03/10 05:07:51;;;;;;;3.20;2.57;;;10.50;99.90;;;;;;4967979;28;20531;-46
2024/03/10 05:10:20;;;;;;;3.50;3.20;;;10.50;99.90;;;;;;4938873;28;20499;-46
2024/03/10 05:12:48;;;;;;;4.53;3.90;;;10.50;99.90;;;;;;4967610;28;20554;-46
2024/03/10 05:15:17;;;;;;;4.70;3.20;;;10.50;99.90;;;;;;4926431;28;20488;-46
2024/03/10 05:17:46;;;;;;;3.70;2.87;;;10.50;99.90;;;;;;4962233;28;20439;-46
2024/03/10 05:20:17;;;;;;;4.53;4.10;;;10.50;99.90;;;;;;4947859;28;20965;-46
2024/03/10 05:22:44;;;;;;;4.70;3.40;;;10.50;99.90;;;;;;4969038;28;20522;-46
2024/03/10 05:25:13;;;;;;;4.53;3.57;;;10.50;99.90;;;;;;4938264;28;20492;-46
2024/03/10 05:27:42;;;;;;;5.03;4.03;;;10.40;99.90;;;;;;4972503;28;20806;-46
2024/03/10 05:30:11;;;;;;;3.40;2.80;;;10.50;99.90;;;;;;4941797;28;20973;-46
2024/03/10 05:32:39;;;;;;;5.00;3.60;;;10.40;99.90;;;;;;4968129;28;20844;-46
2024/03/10 05:35:09;;;;;;;6.33;4.20;;;10.50;99.90;;;;;;4937770;28;20531;-46
2024/03/10 05:37:41;;;;;;;3.93;3.53;;;10.40;99.90;;;;;;4969230;28;20516;-46
2024/03/10 05:40:10;;;;;;;3.63;2.70;;;10.50;99.90;;;;;;4945738;28;20469;-46
2024/03/10 05:42:38;;;;;;;4.43;3.70;;;10.50;99.90;;;;;;4961661;28;20894;-46
2024/03/10 05:45:07;;;;;;;4.00;3.20;;;10.50;99.90;;;;;;4925256;28;20489;-46
2024/03/10 05:47:36;;;;;;;3.83;3.07;;;10.50;99.90;;;;;;4968840;28;20436;-46
2024/03/10 05:50:06;;;;;;;3.20;2.90;;;10.50;99.90;;;;;;4939782;28;20511;-46
2024/03/10 05:52:36;;;;;;;3.43;3.13;;;10.50;99.90;;;;;;4971666;28;20598;-46
2024/03/10 05:55:07;;;;;;;4.40;3.20;;;10.50;99.90;;;;;;4938802;28;20989;-46
2024/03/10 05:57:35;;;;;;;3.27;2.83;;;10.40;99.90;;;;;;4971466;28;20437;-47
2024/03/10 06:00:06;;;;;;;4.50;3.20;;;10.40;99.90;;;;;;4944123;28;20504;-46
2024/03/10 06:02:38;;;;;;;4.43;4.03;;;10.40;99.90;;;;;;4968782;28;20434;-46
2024/03/10 06:05:07;;;;;;;4.80;3.80;;;10.50;99.90;;;;;;4944023;28;21021;-46
2024/03/10 06:07:36;;;;;;;4.17;3.10;;;10.40;99.90;;;;;;4970236;28;20435;-46
2024/03/10 06:10:05;;;;;;;4.03;3.13;;;10.40;99.90;;;;;;4963626;28;20468;-46
2024/03/10 06:12:33;;;;;;;5.00;4.13;;;10.40;99.90;;;;;;4965798;28;20449;-46
2024/03/10 06:15:01;;;;;;;4.80;3.47;;;10.40;99.90;;;;;;4968940;28;20874;-46
2024/03/10 06:17:33;;;;;;;4.60;3.80;;;10.40;99.90;;;;;;4948543;28;20435;-46
2024/03/10 06:25:34;;;;;;;5.53;3.97;;;10.40;99.90;;;;;;4963183;28;20583;-46
2024/03/10 06:28:03;;;;;;;3.73;3.20;;;10.40;99.90;;;;;;4944445;28;20453;-46
2024/03/10 06:30:31;;;;;;;5.10;3.50;;;10.40;99.90;;;;;;4968502;28;20460;-47
2024/03/10 06:32:59;;;;;;;3.53;2.87;;;10.40;99.90;;;;;;4939738;28;20488;-46
2024/03/10 06:35:28;;;;;;;4.73;3.40;;;10.40;99.90;;;;;;4970675;28;20462;-46
2024/03/10 06:38:00;;;;;;;3.23;2.70;;;10.40;99.90;;;;;;4945227;28;20490;-46
2024/03/10 06:40:28;;;;;;;4.10;3.20;;;10.40;99.90;;;;;;4964426;28;20972;-49
2024/03/10 06:42:56;;;;;;;4.47;3.43;;;10.40;99.90;;;;;;4941910;28;20510;-46
2024/03/10 06:45:25;;;;;;;4.23;3.10;;;10.40;99.90;;;;;;4970185;28;20451;-46
2024/03/10 06:47:53;;;;;;;3.47;2.87;;;10.40;99.90;;;;;;4945238;28;20481;-46
2024/03/10 06:50:21;;;;;;;3.63;2.77;;;10.40;99.90;;;;;;4961678;28;20796;-46
2024/03/10 06:52:50;;;;;;;2.97;2.40;;;10.40;99.90;;;;;;4967189;28;20945;-47
2024/03/10 06:55:19;;;;;;;3.63;2.90;;;10.40;99.90;;;;;;4964366;28;20610;-46
2024/03/10 06:57:47;;;;;;;3.33;2.70;;;10.40;99.90;;;;;;4944432;28;20466;-46
2024/03/10 07:00:17;;;;;;;3.00;2.47;;;10.40;99.90;;;;;;4969658;28;20431;-46
2024/03/10 07:02:48;;;;;;;6.10;4.57;;;10.40;99.90;;;;;;4924052;28;20807;-46
2024/03/10 07:05:16;;;;;;;3.33;2.53;;;10.40;99.90;;;;;;4968269;28;20476;-46
2024/03/10 07:07:45;;;;;;;4.37;3.60;;;10.40;99.90;;;;;;4942832;28;20474;-46
2024/03/10 07:10:13;;;;;;;3.67;2.83;;;10.40;99.90;;;;;;4963615;28;20467;-46
2024/03/10 07:12:43;;;;;;;3.67;3.00;;;10.40;99.90;;;;;;4942844;28;20467;-46
2024/03/10 07:15:11;;;;;;;3.17;2.83;;;10.40;99.90;;;;;;4964214;28;20474;-46
2024/03/10 07:17:40;;;;;;;3.80;3.37;;;10.40;99.90;;;;;;4960770;28;20434;-46
2024/03/10 07:20:10;;;;;;;4.10;3.20;;;10.40;99.90;;;;;;4968962;28;20995;-46
2024/03/10 07:22:41;;;;;;;3.83;2.50;;;10.40;99.90;;;;;;4942312;28;20480;-46
2024/03/10 07:25:10;;;;;;;4.17;2.90;;;10.40;99.90;;;;;;4966526;28;20451;-46
2024/03/10 07:27:38;;;;;;;4.33;3.00;;;10.40;99.90;;;;;;4938017;28;20473;-45
2024/03/10 07:30:09;;;;;;;3.20;2.60;;;10.40;99.90;;;;;;4966924;28;20494;-46
2024/03/10 07:32:37;;;;;;;3.87;3.27;;;10.40;99.90;;;;;;4947650;28;20503;-46
2024/03/10 07:35:08;;;;;;;3.57;2.90;;;10.40;99.90;;;;;;4967642;28;20459;-46
2024/03/10 07:37:37;;;;;;;3.17;2.77;;;10.40;99.90;;;;;;4938665;28;20467;-46
2024/03/10 07:40:16;;;;;;;4.00;3.60;;;10.40;99.90;;;;;;4964529;28;20457;-46
2024/03/10 07:42:46;;;;;;;3.60;2.83;;;10.40;99.90;;;;;;4941050;28;20505;-46
2024/03/10 07:45:17;;;;;;;3.93;3.13;;;10.40;99.90;;;;;;4963755;28;20829;-46
2024/03/10 07:47:47;;;;;;;4.73;3.57;;;10.40;99.90;;;;;;4964801;28;20468;-46
2024/03/10 07:50:19;;;;;;;3.70;2.97;;;10.40;99.90;;;;;;4943107;28;20570;-46
2024/03/10 07:52:47;;;;;;;5.23;3.73;;;10.40;99.90;;;;;;4962796;28;20428;-46
2024/03/10 07:55:17;;;;;;;4.00;3.23;;;10.40;99.90;;;;;;4944543;28;20460;-46
2024/03/10 07:57:45;;;;;;;4.43;3.70;;;10.40;99.90;;;;;;4963511;28;20447;-46
2024/03/10 08:00:16;;;;;;;4.60;3.50;;;10.40;99.90;;;;;;4963277;28;20472;-46
2024/03/10 08:02:45;;;;;;;5.10;3.60;;;10.40;99.90;;;;;;4965972;28;20447;-46
2024/03/10 08:05:13;;;;;;;4.20;2.97;;;10.40;99.90;;;;;;4954872;28;20454;-47
2024/03/10 08:07:42;;;;;;;4.00;3.60;;;10.40;99.90;;;;;;4969322;28;21137;-46
2024/03/10 08:10:15;;;;;;;4.83;4.43;;;10.40;99.90;;;;;;4961150;28;20637;-46
2024/03/10 08:12:46;;;;;;;4.07;3.40;;;10.40;99.90;;;;;;4942690;28;20470;-47
2024/03/10 08:15:16;;;;;;;3.60;2.90;;;10.40;99.90;;;;;;4971458;28;20454;-46
2024/03/10 08:17:45;;;;;;;4.10;2.87;;;10.40;99.90;;;;;;4952624;28;20432;-47
2024/03/10 08:20:14;;;;;;;2.90;2.40;;;10.40;99.90;;;;;;4968743;28;20547;-47
2024/03/10 08:22:45;;;;;;;2.93;2.63;;;10.40;99.90;;;;;;4956035;28;20944;-47
2024/03/10 08:25:14;;;;;;;3.57;2.90;;;10.40;99.90;;;;;;4958474;28;20533;-47
2024/03/10 08:27:43;;;;;;;3.23;2.33;;;10.40;99.90;;;;;;4965363;28;20443;-47
2024/03/10 08:30:15;;;;;;;5.37;4.10;;;10.40;99.90;;;;;;4939105;28;20942;-47
2024/03/10 08:32:45;;;;;;;4.73;3.10;;;10.40;99.90;;;;;;4966410;28;20427;-47
2024/03/10 08:35:13;;;;;;;5.40;3.63;;;10.40;99.90;;;;;;4930916;28;20474;-46
2024/03/10 08:37:45;;;;;;;3.83;3.40;;;10.40;99.90;;;;;;4955952;28;20968;-48
2024/03/10 08:40:17;;;;;;;4.20;3.20;;;10.40;99.90;;;;;;4959184;28;20432;-46
2024/03/10 08:42:46;;;;;;;6.85;5.20;;;10.50;99.90;;;;;;4945827;28;20443;-47
2024/03/10 08:45:15;;;;;;;5.50;3.93;;;10.50;99.90;;;;;;4969142;28;20219;-48
2024/03/10 08:47:46;;;;;;;3.33;3.00;;;10.50;99.90;;;;;;4962890;28;20460;-46
2024/03/10 08:50:15;;;;;;;4.07;3.60;;;10.50;99.90;;;;;;4962061;28;20452;-46
2024/03/10 08:52:44;;;;;;;4.70;3.20;;;10.50;99.90;;;;;;4963557;28;21189;-49
2024/03/10 08:55:15;;;;;;;6.13;3.80;;;10.50;99.90;;;;;;4961678;28;20463;-46
2024/03/10 08:57:43;;;;;;;5.33;3.77;;;10.50;99.90;;;;;;4965664;28;20434;-46
2024/03/10 09:00:14;;;;;;;4.77;3.80;;;10.50;99.90;;;;;;4964213;28;20430;-46
2024/03/10 09:02:42;;;;;;;3.80;3.40;;;10.50;99.90;;;;;;4938142;28;20562;-50
2024/03/10 09:05:15;;;;;;;4.63;3.60;;;10.50;99.90;;;;;;4972364;28;20461;-47
2024/03/10 09:07:43;;;;;;;5.00;3.60;;;10.50;99.90;;;;;;4960109;28;20493;-46
2024/03/10 09:10:14;;;;;;;3.60;3.20;;;10.50;99.90;;;;;;4966826;28;20439;-46
2024/03/10 09:12:42;;;;;;;3.93;3.13;;;10.50;99.90;;;;;;4941280;28;20559;-47
2024/03/10 09:15:12;;;;;;;4.90;4.00;;;10.50;99.90;;;;;;4968385;28;20463;-46
2024/03/10 09:17:41;;;;;;;4.43;3.37;;;10.50;99.90;;;;;;4969646;28;20479;-46
2024/03/10 09:20:13;;;;;;;4.30;3.50;;;10.50;99.90;;;;;;4962487;28;20435;-47
2024/03/10 09:22:43;;;;;;;4.97;3.43;;;10.50;99.90;;;;;;4941877;28;20511;-48
2024/03/10 09:25:21;;;;;;;4.73;3.70;;;10.50;99.90;;;;;;4962422;28;20454;-48
2024/03/10 09:27:52;;;;;;;4.70;4.20;;;10.50;99.90;;;;;;4944943;28;20455;-46
2024/03/10 09:30:22;;;;;;;9.47;7.47;;;10.50;99.90;;;;;;4966138;28;20821;-46
2024/03/10 09:32:54;;;;;;;7.33;6.53;;;10.60;99.90;;;;;;4965313;28;20472;-46
2024/03/10 09:35:24;;;;;;;9.70;6.20;;;10.70;98.70;;;;;;4967633;28;20994;-46
2024/03/10 09:37:54;;;;;;;11.50;6.60;;;10.70;99.50;;;;;;4943836;28;20466;-47
2024/03/10 09:40:28;;;;;;;7.33;5.70;;;10.70;99.60;;;;;;4968363;28;20501;-46
2024/03/10 09:42:59;;;;;;;7.43;5.80;;;10.70;99.70;;;;;;4967623;28;20498;-46
2024/03/10 09:45:29;;;;;;;6.90;6.00;;;10.70;99.90;;;;;;4956815;28;20460;-47
2024/03/10 09:48:01;;;;;;;6.93;5.83;;;10.70;99.90;;;;;;4962796;28;20455;-46
2024/03/10 09:50:34;;;;;;;8.90;5.70;;;10.70;99.90;;;;;;4964074;28;20518;-47
2024/03/10 09:53:02;;;;;;;8.77;5.77;;;10.70;99.90;;;;;;4957655;28;20474;-46
2024/03/10 09:55:31;;;;;;;7.20;5.90;;;10.70;99.90;;;;;;4946083;28;20467;-47
2024/03/10 09:58:10;;;;;;;8.80;5.57;;;10.70;99.90;;;;;;4955132;28;20439;-46
2024/03/10 10:00:39;;;;;;;10.00;6.03;;;10.70;99.90;;;;;;4935295;28;20444;-47
2024/03/10 10:03:10;;;;;;;8.53;6.27;;;10.80;99.90;;;;;;4967028;28;20446;-47
2024/03/10 10:05:44;;;;;;;6.57;5.37;;;10.80;99.90;;;;;;4933413;28;20467;-47
2024/03/10 10:08:12;;;;;;;9.13;5.40;;;10.80;99.90;;;;;;4957597;28;20453;-47
2024/03/10 10:10:42;;;;;;;6.70;5.10;;;10.90;99.90;;;;;;4932107;28;20452;-46
2024/03/10 10:13:22;;;;;;;6.53;5.27;;;10.90;99.90;;;;;;4962531;28;20482;-46
2024/03/10 10:15:50;;;;;;;6.10;5.20;;;10.90;99.90;;;;;;4947709;28;20524;-46
2024/03/10 10:18:18;;;;;;;7.30;5.13;;;10.90;99.90;;;;;;4966645;28;20995;-47
2024/03/10 10:20:50;;;;;;;5.93;5.03;;;10.90;99.90;;;;;;4945909;28;20866;-46
2024/03/10 10:23:23;;;;;;;8.53;5.43;;;10.90;99.90;;;;;;4969749;28;20433;-46
2024/03/10 10:25:54;;;;;;;6.73;5.30;;;10.90;99.90;;;;;;4940237;28;20910;-46
2024/03/10 10:28:22;;;;;;;5.90;5.10;;;10.90;99.90;;;;;;4962757;28;20498;-47
2024/03/10 10:30:50;;;;;;;5.10;4.50;;;10.90;99.90;;;;;;4953407;28;20453;-47
2024/03/10 10:33:18;;;;;;;6.43;5.10;;;10.90;99.90;;;;;;4971001;28;20469;-47
2024/03/10 10:35:48;;;;;;;5.47;4.63;;;10.90;99.90;;;;;;4939815;28;20476;-46
2024/03/10 10:38:16;;;;;;;6.73;4.67;;;10.90;99.90;;;;;;4961845;28;20452;-47
2024/03/10 10:40:48;;;;;;;5.20;4.27;;;10.90;99.90;;;;;;4963318;28;20477;-46
2024/03/10 10:43:17;;;;;;;7.63;5.17;;;10.90;99.90;;;;;;4962819;28;20933;-47
2024/03/10 10:45:48;;;;;;;6.67;4.30;;;10.90;99.90;;;;;;4967027;28;20462;-48
2024/03/10 10:48:16;;;;;;;6.60;4.03;;;10.90;99.90;;;;;;4965157;28;20456;-48
2024/03/10 10:50:47;;;;;;;5.87;5.00;;;10.90;99.90;;;;;;4943134;28;20474;-47
2024/03/10 10:53:17;;;;;;;5.13;3.87;;;10.90;99.90;;;;;;4962983;28;20469;-47
2024/03/10 10:55:46;;;;;;;6.03;4.20;;;10.90;99.90;;;;;;4941210;28;20524;-49
2024/03/10 10:58:17;;;;;;;4.83;4.33;;;10.90;99.90;;;;;;4963075;28;20460;-48
2024/03/10 11:00:50;;;;;;;5.20;4.40;;;10.90;99.90;;;;;;4941936;28;20429;-49
2024/03/10 11:03:24;;;;;;;5.50;4.50;;;10.90;99.90;;;;;;4960208;28;20955;-47
2024/03/10 11:06:26;;;;;;;5.10;4.03;;;10.90;99.90;;;;;;4941673;28;21119;-47
2024/03/10 11:08:56;;;;;;;5.20;4.20;;;10.90;99.90;;;;;;4948946;28;20475;-46
2024/03/10 11:11:45;;;;;;;6.47;3.97;;;10.90;99.90;;;;;;4924721;28;20489;-48
2024/03/10 11:14:15;;;;;;;7.93;4.40;;;10.80;99.90;;;;;;4968898;28;20427;-47
2024/03/10 11:16:44;;;;;;;7.93;4.27;;;10.80;99.90;;;;;;4936480;28;20488;-48
2024/03/10 11:19:20;;;;;;;6.33;4.57;;;10.80;99.90;;;;;;4964444;28;20447;-47
2024/03/10 11:21:50;;;;;;;5.50;4.00;;;10.80;99.90;;;;;;4966950;28;20457;-47
2024/03/10 11:24:25;;;;;;;5.10;4.60;;;10.80;99.90;;;;;;4941163;28;20474;-47
2024/03/10 11:27:17;;;;;;;4.53;3.70;;;10.80;99.90;;;;;;4961551;28;20489;-46
2024/03/10 11:29:49;;;;;;;4.37;3.93;;;10.90;99.90;;;;;;4941209;28;20488;-47
2024/03/10 11:32:32;;;;;;;7.13;4.03;;;10.80;99.90;;;;;;4964426;28;20467;-47
2024/03/10 11:35:06;;;;;;;4.67;4.17;;;10.90;99.90;;;;;;4966677;28;20518;-49
2024/03/10 11:37:39;;;;;;;4.33;3.87;;;10.90;99.90;;;;;;4945436;28;20473;-47
2024/03/10 11:40:15;;;;;;;6.27;4.30;;;10.90;99.90;;;;;;4950061;28;20471;-47
2024/03/10 11:42:47;;;;;;;4.73;4.10;;;10.90;99.90;;;;;;4962719;28;20786;-50
2024/03/10 11:45:15;;;;;;;6.00;4.07;;;10.90;99.90;;;;;;4959113;28;20941;-48
2024/03/10 11:47:46;;;;;;;5.73;4.40;;;10.90;99.90;;;;;;4943670;28;20435;-47
2024/03/10 11:50:15;;;;;;;4.03;3.43;;;10.90;99.90;;;;;;4960496;28;20432;-48
2024/03/10 11:52:45;;;;;;;4.87;3.50;;;10.90;99.90;;;;;;4937380;28;20482;-49
2024/03/10 11:55:18;;;;;;;5.17;3.77;;;10.90;99.90;;;;;;4946380;28;20475;-48
2024/03/10 11:57:52;;;;;;;4.67;3.77;;;10.90;99.90;;;;;;4942414;28;20481;-48
2024/03/10 12:00:21;;;;;;;4.27;3.57;;;10.90;99.90;;;;;;4969972;28;20437;-46
2024/03/10 12:02:54;;;;;;;4.53;4.10;;;10.90;99.90;;;;;;4941283;28;20473;-47
2024/03/10 12:05:22;;;;;;;4.80;3.67;;;10.90;99.90;;;;;;4958843;28;20462;-49
2024/03/10 12:07:53;;;;;;;5.10;4.20;;;10.90;99.90;;;;;;4935081;28;20825;-46
2024/03/10 12:10:24;;;;;;;5.20;4.10;;;10.90;99.90;;;;;;4962159;28;20999;-46
2024/03/10 12:12:53;;;;;;;6.07;3.93;;;10.90;99.90;;;;;;4963988;28;20855;-46
2024/03/10 12:15:22;;;;;;;5.00;4.10;;;10.90;99.90;;;;;;4935770;28;21024;-49
2024/03/10 12:17:50;;;;;;;4.70;3.83;;;10.90;99.90;;;;;;4968912;28;20960;-46
2024/03/10 12:20:22;;;;;;;5.50;3.80;;;10.90;99.90;;;;;;4946539;28;20537;-47
2024/03/10 12:22:55;;;;;;;5.90;4.20;;;10.90;99.90;;;;;;4965136;28;20521;-47
2024/03/10 12:25:27;;;;;;;4.93;3.60;;;10.90;99.90;;;;;;4942282;28;21057;-48
2024/03/10 12:27:55;;;;;;;7.80;3.80;;;10.90;99.90;;;;;;4968854;28;20973;-47
2024/03/10 12:30:27;;;;;;;5.23;3.83;;;10.90;99.90;;;;;;4943305;28;20670;-48
2024/03/10 12:32:56;;;;;;;5.80;4.50;;;10.90;99.90;;;;;;4960514;28;20812;-48
2024/03/10 12:35:25;;;;;;;9.27;4.27;;;10.90;99.90;;;;;;4941526;28;20478;-47
2024/03/10 12:37:54;;;;;;;4.80;3.93;;;10.80;99.90;;;;;;4969794;28;20449;-48
2024/03/10 12:40:22;;;;;;;5.60;3.60;;;10.80;99.90;;;;;;4943939;28;20566;-46
2024/03/10 12:42:54;;;;;;;4.00;3.43;;;10.80;99.90;;;;;;4965777;28;20437;-46
2024/03/10 12:45:22;;;;;;;6.00;3.90;;;10.80;99.90;;;;;;4933972;28;20506;-47
2024/03/10 12:47:52;;;;;;;4.23;3.63;;;10.80;99.90;;;;;;4961239;28;20453;-47
2024/03/10 12:50:21;;;;;;;4.50;3.83;;;10.80;99.90;;;;;;4944942;28;20468;-47
2024/03/10 12:52:52;;;;;;;5.93;4.10;;;10.90;99.90;;;;;;4966279;28;20463;-46
2024/03/10 12:55:20;;;;;;;4.50;3.53;;;10.90;99.90;;;;;;4939408;28;20496;-48
2024/03/10 12:57:49;;;;;;;4.30;3.77;;;10.90;99.90;;;;;;4969464;28;20447;-47
2024/03/10 13:00:30;;;;;;;5.20;3.80;;;10.90;99.90;;;;;;4944805;28;20950;-47
2024/03/10 13:02:59;;;;;;;5.00;4.00;;;10.90;99.90;;;;;;4967895;28;22692;-47
2024/03/10 13:05:28;;;;;;;4.00;3.33;;;10.90;99.90;;;;;;4940183;28;20490;-46
2024/03/10 13:08:00;;;;;;;5.50;3.50;;;10.90;99.90;;;;;;4968653;28;20438;-49
2024/03/10 13:10:29;;;;;;;4.97;3.80;;;10.90;99.90;;;;;;4938597;28;21009;-47
2024/03/10 13:12:57;;;;;;;4.47;3.70;;;10.90;99.90;;;;;;4964861;28;20475;-47
2024/03/10 13:15:27;;;;;;;6.50;4.13;;;10.90;99.90;;;;;;4942916;28;20484;-46
2024/03/10 13:17:56;;;;;;;4.70;3.97;;;10.90;99.90;;;;;;4960421;28;20439;-47
2024/03/10 13:20:27;;;;;;;5.20;4.37;;;10.90;99.90;;;;;;4946660;28;20472;-47
2024/03/10 13:22:55;;;;;;;4.17;3.77;;;10.90;99.90;;;;;;4969966;28;20454;-46